Time;durP1;ratioP1;P1;durP2;ratioP2;P2;SDS_P1;SDS_P2;PMS_P1;PMS_P2;Temp;Humidity;BMP_temperature;BMP_pressure;BME280_temperature;BME280_humidity;BME280_pressure;Samples;Min_cycle;Max_cycle;Signal;HPM_P1;HPM_P2
2022/08/07 00:00:50;;;;;;;7.20;5.70;;;12.70;99.90;;;;;;5001160;28;90179;-34
2022/08/07 00:03:16;;;;;;;5.88;5.32;;;12.70;99.90;;;;;;4999479;28;91479;-30
2022/08/07 00:05:42;;;;;;;10.07;5.72;;;12.70;99.90;;;;;;5000296;28;89479;-32
2022/08/07 00:08:07;;;;;;;8.70;6.15;;;12.60;99.90;;;;;;5000889;28;88488;-33
2022/08/07 00:10:33;;;;;;;11.15;6.40;;;12.50;99.90;;;;;;5000250;28;90408;-33
2022/08/07 00:13:01;;;;;;;7.55;6.53;;;12.40;99.90;;;;;;5000438;28;90126;-35
2022/08/07 00:15:29;;;;;;;8.70;6.95;;;12.40;99.90;;;;;;5000355;28;89297;-33
2022/08/07 00:17:55;;;;;;;7.82;7.03;;;12.40;99.90;;;;;;5000164;28;88916;-31
2022/08/07 00:20:20;;;;;;;7.05;5.97;;;12.20;99.90;;;;;;5034298;22;90264;-31
2022/08/07 00:22:46;;;;;;;6.65;5.50;;;12.20;99.90;;;;;;5000027;28;90934;-32
2022/08/07 00:25:12;;;;;;;7.63;6.90;;;12.10;99.90;;;;;;5000077;28;90468;-34
2022/08/07 00:27:37;;;;;;;6.57;5.05;;;12.10;99.90;;;;;;5000480;28;88003;-33
2022/08/07 00:30:04;;;;;;;9.35;7.13;;;12.10;99.90;;;;;;5000334;28;90550;-32
2022/08/07 00:32:29;;;;;;;8.73;6.65;;;12.10;99.90;;;;;;4999483;28;89887;-32
2022/08/07 00:34:55;;;;;;;7.80;6.18;;;12.00;99.90;;;;;;4999779;28;89868;-30
2022/08/07 00:37:20;;;;;;;9.38;7.32;;;12.00;99.90;;;;;;4999535;28;88424;-30
2022/08/07 00:39:46;;;;;;;9.48;7.95;;;12.00;99.90;;;;;;5000701;28;90424;-32
2022/08/07 00:42:12;;;;;;;8.35;6.88;;;12.00;99.90;;;;;;4999328;28;89585;-33
2022/08/07 00:44:38;;;;;;;8.13;6.18;;;12.00;99.90;;;;;;4999942;28;89399;-35
2022/08/07 00:47:05;;;;;;;9.75;7.70;;;12.00;99.90;;;;;;4999997;28;89707;-29
2022/08/07 00:49:31;;;;;;;7.50;6.60;;;12.00;99.90;;;;;;4996878;28;90301;-33
2022/08/07 00:51:57;;;;;;;9.32;7.45;;;12.00;99.90;;;;;;4999933;28;89896;-31
2022/08/07 00:54:23;;;;;;;7.25;6.55;;;12.00;99.90;;;;;;4999660;28;89537;-33
2022/08/07 00:56:50;;;;;;;7.35;6.65;;;12.00;99.90;;;;;;4999223;28;88450;-34
2022/08/07 00:59:19;;;;;;;10.77;6.35;;;12.00;99.90;;;;;;4999870;28;90860;-33
2022/08/07 01:01:45;;;;;;;10.77;7.75;;;12.00;99.90;;;;;;4999974;28;89790;-33
2022/08/07 01:04:11;;;;;;;8.95;7.18;;;12.00;99.90;;;;;;4999089;28;90553;-31
2022/08/07 01:06:36;;;;;;;9.77;7.68;;;12.10;99.90;;;;;;4999361;28;89197;-32
2022/08/07 01:09:03;;;;;;;10.15;7.50;;;12.10;99.90;;;;;;4999722;28;91625;-32
2022/08/07 01:11:29;;;;;;;7.80;6.47;;;12.10;99.90;;;;;;4998327;28;90853;-34
2022/08/07 01:13:55;;;;;;;7.32;6.43;;;12.10;99.90;;;;;;4999760;28;90486;-36
2022/08/07 01:16:21;;;;;;;9.23;6.88;;;12.10;99.90;;;;;;4999391;28;87839;-32
2022/08/07 01:18:47;;;;;;;9.25;6.05;;;12.00;99.90;;;;;;4998709;28;90377;-31
2022/08/07 01:21:18;;;;;;;8.70;7.47;;;12.00;99.90;;;;;;4999511;28;89032;-30
2022/08/07 01:23:46;;;;;;;10.35;7.40;;;12.00;99.90;;;;;;4999230;28;89739;-34
2022/08/07 01:26:14;;;;;;;8.13;6.97;;;12.00;99.90;;;;;;5000002;28;89599;-30
2022/08/07 01:28:45;;;;;;;10.77;6.25;;;11.90;99.90;;;;;;4999719;28;90479;-30
2022/08/07 01:31:11;;;;;;;8.32;7.53;;;12.00;99.90;;;;;;4999289;28;89309;-32
2022/08/07 01:33:39;;;;;;;9.70;8.10;;;11.90;99.90;;;;;;4997374;28;89414;-31
2022/08/07 01:36:08;;;;;;;7.95;6.95;;;11.90;99.90;;;;;;4998424;28;89595;-32
2022/08/07 01:38:34;;;;;;;10.60;8.68;;;11.90;99.90;;;;;;4998971;28;90226;-31
2022/08/07 01:41:02;;;;;;;8.30;6.95;;;11.90;99.90;;;;;;4999409;28;90242;-31
2022/08/07 01:43:28;;;;;;;8.40;7.25;;;11.90;99.90;;;;;;4998961;28;89133;-29
2022/08/07 01:45:55;;;;;;;10.48;7.47;;;11.90;99.90;;;;;;4999074;28;88820;-29
2022/08/07 01:48:22;;;;;;;8.48;7.60;;;11.80;99.90;;;;;;4998423;28;90216;-30
2022/08/07 01:51:17;;;;;;;11.00;6.80;;;11.80;99.90;;;;;;4999306;28;89205;-31
2022/08/07 01:53:46;;;;;;;6.88;6.18;;;11.80;99.90;;;;;;4997374;28;89915;-32
2022/08/07 01:56:16;;;;;;;8.80;6.47;;;11.80;99.90;;;;;;4998615;28;89173;-29
2022/08/07 01:58:48;;;;;;;8.25;7.50;;;11.80;99.90;;;;;;4998270;28;90293;-30
2022/08/07 02:01:25;;;;;;;11.70;6.75;;;11.80;99.90;;;;;;4997589;28;90191;-32
2022/08/07 02:03:59;;;;;;;9.77;6.53;;;11.80;99.90;;;;;;4998063;28;90574;-30
2022/08/07 02:06:29;;;;;;;8.43;7.60;;;11.80;99.90;;;;;;4999102;28;89105;-33
2022/08/07 02:08:55;;;;;;;10.98;7.65;;;11.80;99.90;;;;;;4998893;28;91851;-29
2022/08/07 02:11:21;;;;;;;8.23;7.40;;;11.80;99.90;;;;;;4998897;28;89398;-29
2022/08/07 02:13:48;;;;;;;8.63;7.28;;;11.80;99.90;;;;;;4998777;28;88834;-31
2022/08/07 02:16:16;;;;;;;7.57;6.65;;;11.80;99.90;;;;;;4998997;28;89404;-30
2022/08/07 02:18:43;;;;;;;13.98;7.43;;;11.80;99.90;;;;;;4998497;28;90349;-29
2022/08/07 02:21:09;;;;;;;8.43;7.20;;;11.80;99.90;;;;;;4998299;28;88724;-31
2022/08/07 02:23:38;;;;;;;8.43;7.63;;;11.80;99.90;;;;;;4998436;28;89720;-34
2022/08/07 02:26:06;;;;;;;12.88;8.77;;;11.80;99.90;;;;;;4998545;28;89286;-30
2022/08/07 02:28:35;;;;;;;10.75;7.70;;;11.80;99.90;;;;;;4998330;28;90778;-30
2022/08/07 02:31:02;;;;;;;9.75;7.78;;;11.70;99.90;;;;;;4999251;28;90373;-29
2022/08/07 02:33:29;;;;;;;8.80;7.75;;;11.70;99.90;;;;;;4998095;28;89449;-30
2022/08/07 02:35:56;;;;;;;9.65;7.85;;;11.70;99.90;;;;;;4998905;28;89729;-34
2022/08/07 02:38:26;;;;;;;11.25;8.95;;;11.60;99.90;;;;;;4998469;28;90342;-29
2022/08/07 02:40:53;;;;;;;9.07;6.30;;;11.60;99.90;;;;;;4998779;28;89926;-31
2022/08/07 02:43:19;;;;;;;9.88;5.97;;;11.60;99.90;;;;;;4998537;28;89586;-32
2022/08/07 02:45:46;;;;;;;9.52;6.85;;;11.40;99.90;;;;;;5002222;28;88143;-30
2022/08/07 02:48:12;;;;;;;8.95;7.32;;;11.30;99.90;;;;;;5001614;28;90647;-30
2022/08/07 02:50:43;;;;;;;8.55;7.75;;;11.20;99.90;;;;;;5001203;28;91723;-29
2022/08/07 02:53:11;;;;;;;8.35;7.18;;;11.10;99.90;;;;;;5001898;28;90796;-36
2022/08/07 02:55:42;;;;;;;8.80;7.70;;;11.10;99.90;;;;;;5001612;28;87620;-32
2022/08/07 02:58:12;;;;;;;9.98;8.27;;;11.00;99.90;;;;;;4989285;28;90159;-30
2022/08/07 03:00:39;;;;;;;7.93;7.13;;;10.90;99.90;;;;;;5002288;28;90583;-31
2022/08/07 03:03:08;;;;;;;9.05;7.38;;;10.90;99.90;;;;;;5000829;28;89642;-33
2022/08/07 03:05:35;;;;;;;9.65;8.63;;;10.90;99.90;;;;;;5001206;28;89434;-34
2022/08/07 03:08:03;;;;;;;11.40;8.50;;;10.80;99.90;;;;;;5001780;28;90146;-35
2022/08/07 03:10:30;;;;;;;11.48;10.25;;;10.80;99.90;;;;;;5001999;28;90609;-32
2022/08/07 03:12:56;;;;;;;11.57;8.50;;;10.80;99.90;;;;;;5000864;28;89604;-30
2022/08/07 03:15:22;;;;;;;8.02;7.20;;;10.80;99.90;;;;;;4999365;28;90172;-30
2022/08/07 03:17:48;;;;;;;8.70;7.85;;;10.80;99.90;;;;;;5001406;28;89931;-33
2022/08/07 03:20:14;;;;;;;8.30;7.00;;;10.90;99.90;;;;;;5000783;28;90447;-32
2022/08/07 03:22:41;;;;;;;9.98;8.77;;;10.90;99.90;;;;;;5001079;28;89728;-35
2022/08/07 03:25:08;;;;;;;11.50;7.10;;;10.90;99.90;;;;;;5001453;28;89252;-31
2022/08/07 03:27:34;;;;;;;12.52;8.95;;;10.90;99.90;;;;;;5001032;28;90385;-31
2022/08/07 03:30:00;;;;;;;8.20;7.03;;;10.90;99.90;;;;;;5000767;28;89144;-32
2022/08/07 03:32:32;;;;;;;10.57;7.90;;;10.80;99.90;;;;;;5001351;28;89496;-31
2022/08/07 03:35:01;;;;;;;8.73;6.78;;;10.80;99.90;;;;;;5001006;28;89047;-31
2022/08/07 03:37:29;;;;;;;8.45;6.93;;;10.80;99.90;;;;;;5000568;28;92227;-31
2022/08/07 03:39:55;;;;;;;;;;;10.80;99.90;;;;;;5000714;28;90664;-31
2022/08/07 03:42:21;;;;;;;10.35;8.40;;;10.70;99.90;;;;;;5001405;28;90505;-29
2022/08/07 03:44:47;;;;;;;15.48;9.82;;;10.70;99.90;;;;;;5001396;28;88916;-32
2022/08/07 03:47:14;;;;;;;12.13;9.15;;;10.70;99.90;;;;;;5000939;28;90189;-30
2022/08/07 03:49:41;;;;;;;12.77;10.25;;;10.70;99.90;;;;;;5000827;28;89673;-33
2022/08/07 03:52:08;;;;;;;14.38;12.75;;;10.70;99.90;;;;;;4999841;28;89900;-32
2022/08/07 03:54:35;;;;;;;15.57;11.57;;;10.70;99.90;;;;;;4999854;28;87948;-30
2022/08/07 03:57:02;;;;;;;13.68;10.23;;;10.70;99.90;;;;;;4999792;28;90738;-30
2022/08/07 03:59:28;;;;;;;14.27;12.47;;;10.70;99.90;;;;;;4999899;28;89538;-29
2022/08/07 04:01:55;;;;;;;17.00;12.48;;;10.70;99.90;;;;;;5000272;28;89359;-32
2022/08/07 04:04:21;;;;;;;10.43;9.13;;;10.70;99.90;;;;;;4998477;28;90501;-30
2022/08/07 04:06:47;;;;;;;12.52;10.60;;;10.70;99.90;;;;;;4999944;28;90394;-31
2022/08/07 04:09:14;;;;;;;15.68;12.85;;;10.80;99.90;;;;;;4999545;28;89275;-30
2022/08/07 04:11:40;;;;;;;12.98;10.32;;;10.80;99.90;;;;;;5000264;28;91490;-31
2022/08/07 04:14:06;;;;;;;12.95;11.00;;;10.80;99.90;;;;;;4999862;28;89754;-35
2022/08/07 04:16:32;;;;;;;13.32;11.93;;;10.80;99.90;;;;;;4999376;28;90785;-31
2022/08/07 04:19:02;;;;;;;18.13;12.45;;;10.80;99.90;;;;;;4998450;28;89377;-31
2022/08/07 04:21:27;;;;;;;17.25;12.00;;;10.80;99.90;;;;;;4999344;28;90229;-30
2022/08/07 04:23:54;;;;;;;15.02;11.23;;;10.80;99.90;;;;;;5000037;28;87576;-31
2022/08/07 04:26:19;;;;;;;17.35;13.98;;;10.80;99.90;;;;;;4999613;28;90168;-30
2022/08/07 04:28:45;;;;;;;12.13;10.85;;;10.80;99.90;;;;;;4998574;28;91175;-31
2022/08/07 04:31:11;;;;;;;15.25;11.10;;;10.90;99.90;;;;;;4998833;28;90002;-30
2022/08/07 04:33:38;;;;;;;10.98;9.02;;;10.90;99.90;;;;;;4999234;28;89592;-29
2022/08/07 04:36:07;;;;;;;11.68;9.15;;;10.90;99.90;;;;;;5000210;28;90404;-34
2022/08/07 04:38:34;;;;;;;13.15;11.70;;;11.00;99.90;;;;;;4999865;28;89636;-31
2022/08/07 04:41:00;;;;;;;11.02;9.68;;;11.00;99.90;;;;;;4999952;28;90215;-29
2022/08/07 04:43:31;;;;;;;9.23;8.27;;;11.00;99.90;;;;;;4999295;28;88915;-28
2022/08/07 04:46:12;;;;;;;11.15;9.32;;;11.10;99.90;;;;;;4991872;28;90275;-31
2022/08/07 04:48:50;;;;;;;10.45;9.35;;;11.30;99.90;;;;;;4996667;28;89914;-30
2022/08/07 04:51:36;;;;;;;10.40;9.30;;;11.40;99.90;;;;;;5000301;28;89549;-29
2022/08/07 04:54:16;;;;;;;13.02;10.05;;;11.70;99.90;;;;;;4999227;28;88962;-29
2022/08/07 04:57:14;;;;;;;11.32;9.90;;;11.80;99.90;;;;;;4999230;28;90908;-31
2022/08/07 04:59:45;;;;;;;;;;;12.10;99.90;;;;;;5000459;28;89720;-30
2022/08/07 05:02:27;;;;;;;11.95;9.18;;;12.50;99.90;;;;;;5001353;28;89056;-30
2022/08/07 05:05:21;;;;;;;11.18;9.98;;;12.70;99.90;;;;;;4985692;28;89023;-34
2022/08/07 05:07:55;;;;;;;10.48;9.43;;;12.80;99.90;;;;;;4997218;28;91724;-31
2022/08/07 05:10:46;;;;;;;11.13;9.45;;;12.90;99.90;;;;;;4998949;28;90328;-30
2022/08/07 05:13:27;;;;;;;9.25;8.30;;;13.00;99.90;;;;;;4999123;28;89879;-32
2022/08/07 05:15:53;;;;;;;10.77;9.18;;;13.10;99.90;;;;;;4999764;28;89723;-32
2022/08/07 05:18:28;;;;;;;11.70;9.88;;;13.10;99.90;;;;;;4998173;28;91233;-30
2022/08/07 05:20:57;;;;;;;9.32;7.63;;;13.10;99.90;;;;;;4999440;28;90605;-32
2022/08/07 05:23:32;;;;;;;9.77;8.80;;;13.10;99.90;;;;;;4998970;28;90504;-31
2022/08/07 05:26:01;;;;;;;11.52;8.52;;;13.10;99.90;;;;;;4999322;28;88650;-31
2022/08/07 05:28:29;;;;;;;8.63;7.35;;;13.20;99.90;;;;;;4998291;28;89685;-30
2022/08/07 05:30:57;;;;;;;8.95;7.15;;;13.40;99.90;;;;;;4999784;28;90086;-32
2022/08/07 05:33:23;;;;;;;;;;;13.40;99.90;;;;;;4998898;28;89749;-32
2022/08/07 05:35:51;;;;;;;11.35;8.40;;;13.40;99.90;;;;;;5000999;28;89005;-32
2022/08/07 05:38:20;;;;;;;11.02;8.15;;;13.50;99.90;;;;;;4999007;28;90339;-32
2022/08/07 05:40:47;;;;;;;8.13;7.32;;;13.60;99.90;;;;;;4998503;28;89240;-31
2022/08/07 05:43:13;;;;;;;10.35;8.77;;;13.70;99.90;;;;;;4998922;28;90245;-36
2022/08/07 05:45:41;;;;;;;9.52;8.52;;;13.80;99.90;;;;;;4998921;28;89101;-31
2022/08/07 05:48:07;;;;;;;10.60;9.18;;;13.80;99.90;;;;;;4998836;28;89900;-34
2022/08/07 05:50:33;;;;;;;11.80;9.68;;;13.90;99.90;;;;;;4998530;28;90165;-34
2022/08/07 05:53:00;;;;;;;10.48;9.48;;;14.00;99.90;;;;;;4999214;28;89289;-31
2022/08/07 05:55:27;;;;;;;12.13;9.55;;;14.10;99.90;;;;;;4998449;28;89920;-31
2022/08/07 05:57:54;;;;;;;12.18;9.68;;;14.20;99.90;;;;;;4999157;28;90787;-32
2022/08/07 06:00:21;;;;;;;15.05;12.30;;;14.30;99.90;;;;;;4998599;28;90025;-30
2022/08/07 06:02:49;;;;;;;17.17;10.90;;;14.40;99.90;;;;;;4998778;28;89271;-33
2022/08/07 06:05:15;;;;;;;12.68;11.38;;;14.50;99.90;;;;;;4997199;28;88625;-34
2022/08/07 06:07:41;;;;;;;17.50;13.38;;;14.60;99.90;;;;;;4998106;28;89203;-31
2022/08/07 06:10:09;;;;;;;16.77;12.15;;;14.70;99.90;;;;;;4997655;28;91101;-32
2022/08/07 06:12:35;;;;;;;29.50;12.52;;;14.80;99.90;;;;;;4997172;28;90501;-33
2022/08/07 06:15:01;;;;;;;12.15;10.93;;;14.90;99.90;;;;;;4998349;28;88901;-31
2022/08/07 06:17:27;;;;;;;14.48;12.85;;;14.90;99.90;;;;;;4998042;28;90379;-30
2022/08/07 06:19:53;;;;;;;16.48;12.98;;;15.00;99.90;;;;;;4999397;28;89429;-31
2022/08/07 06:22:19;;;;;;;12.68;10.93;;;15.10;99.90;;;;;;5001234;28;89981;-29
2022/08/07 06:24:45;;;;;;;13.90;11.80;;;15.20;99.90;;;;;;5000851;28;88609;-30
2022/08/07 06:27:22;;;;;;;16.33;11.35;;;15.40;99.90;;;;;;5000940;28;90332;-34
2022/08/07 06:29:48;;;;;;;17.83;13.40;;;15.50;99.90;;;;;;5001466;28;89610;-32
2022/08/07 06:32:14;;;;;;;16.17;14.07;;;15.70;99.90;;;;;;5000629;28;89707;-31
2022/08/07 06:34:40;;;;;;;18.77;12.13;;;15.80;99.90;;;;;;5000711;28;90475;-34
2022/08/07 06:37:05;;;;;;;15.20;11.27;;;15.80;99.90;;;;;;5001483;28;90589;-30
2022/08/07 06:39:31;;;;;;;17.73;12.68;;;16.00;99.90;;;;;;5000971;28;89561;-31
2022/08/07 06:42:05;;;;;;;11.80;10.02;;;16.10;99.90;;;;;;5006826;28;89377;-30
2022/08/07 06:44:32;;;;;;;13.65;10.20;;;16.30;99.90;;;;;;5009351;28;89078;-30
2022/08/07 06:46:58;;;;;;;12.80;9.55;;;16.50;99.90;;;;;;5011765;28;90299;-32
2022/08/07 06:49:23;;;;;;;11.27;9.23;;;16.60;99.90;;;;;;5014697;28;89813;-31
2022/08/07 06:51:51;;;;;;;11.85;10.48;;;16.80;99.90;;;;;;5015652;28;89484;-30
2022/08/07 06:54:18;;;;;;;11.98;9.65;;;17.10;99.90;;;;;;5014370;28;88255;-30
2022/08/07 06:56:46;;;;;;;11.48;9.68;;;17.40;99.90;;;;;;5014299;28;90640;-36
2022/08/07 06:59:18;;;;;;;11.68;9.63;;;17.70;99.90;;;;;;5005911;28;90426;-31
2022/08/07 07:01:45;;;;;;;11.48;9.98;;;18.00;99.90;;;;;;5002147;28;91566;-33
2022/08/07 07:04:11;;;;;;;10.82;9.60;;;18.20;99.90;;;;;;5001066;28;89119;-33
2022/08/07 07:06:37;;;;;;;11.30;9.32;;;18.40;99.90;;;;;;5001077;28;90575;-32
2022/08/07 07:09:27;;;;;;;10.27;8.93;;;18.70;99.90;;;;;;5002772;28;89606;-33
2022/08/07 07:12:05;;;;;;;11.80;9.32;;;18.90;99.90;;;;;;5000257;28;89349;-32
2022/08/07 07:14:36;;;;;;;10.48;8.20;;;19.00;99.90;;;;;;5002117;28;89037;-33
2022/08/07 07:17:10;;;;;;;8.63;7.72;;;19.20;99.90;;;;;;5001564;28;90150;-33
2022/08/07 07:19:43;;;;;;;7.25;6.30;;;19.20;99.90;;;;;;5001201;28;90204;-31
2022/08/07 07:22:10;;;;;;;10.07;6.60;;;19.40;99.90;;;;;;5001392;28;89993;-32
2022/08/07 07:24:38;;;;;;;6.07;5.47;;;19.50;99.90;;;;;;5006243;28;88285;-32
2022/08/07 07:27:05;;;;;;;6.70;6.10;;;19.70;99.90;;;;;;5009381;28;90174;-31
2022/08/07 07:29:36;;;;;;;7.20;6.50;;;19.80;99.90;;;;;;5008306;28;89564;-31
2022/08/07 07:32:06;;;;;;;8.23;7.15;;;20.00;99.90;;;;;;5008082;28;89491;-33
2022/08/07 07:34:35;;;;;;;8.57;6.15;;;20.30;99.90;;;;;;5008805;28;88387;-30
2022/08/07 07:37:03;;;;;;;6.45;5.75;;;20.30;99.90;;;;;;5008393;28;90448;-32
2022/08/07 07:39:30;;;;;;;;;;;20.40;99.90;;;;;;5010009;28;88583;-31
2022/08/07 07:41:56;;;;;;;7.05;5.57;;;20.50;99.90;;;;;;5010229;28;90247;-32
2022/08/07 07:44:23;;;;;;;4.50;4.10;;;20.50;99.90;;;;;;5008345;28;88099;-32
2022/08/07 07:46:50;;;;;;;5.95;5.03;;;20.60;99.90;;;;;;5010447;28;90616;-33
2022/08/07 07:49:18;;;;;;;5.25;4.82;;;20.70;99.90;;;;;;5001790;28;90214;-32
2022/08/07 07:51:45;;;;;;;10.30;4.45;;;21.00;99.90;;;;;;5000930;28;92751;-32
2022/08/07 07:54:13;;;;;;;5.70;4.05;;;21.20;99.90;;;;;;5002568;28;89268;-32
2022/08/07 07:56:42;;;;;;;5.28;3.95;;;21.30;99.90;;;;;;5011549;28;90482;-31
2022/08/07 07:59:08;;;;;;;5.82;5.10;;;21.20;99.90;;;;;;5008118;28;89795;-30
2022/08/07 08:01:38;;;;;;;9.15;5.68;;;21.30;99.90;;;;;;5008626;28;89626;-31
2022/08/07 08:04:06;;;;;;;5.60;5.00;;;21.40;99.90;;;;;;5009236;28;87890;-32
2022/08/07 08:06:33;;;;;;;7.57;5.18;;;21.50;99.90;;;;;;5009759;28;89219;-32
2022/08/07 08:09:02;;;;;;;7.95;4.80;;;21.60;99.90;;;;;;5007576;28;90699;-32
2022/08/07 08:11:29;;;;;;;6.35;4.80;;;21.60;99.90;;;;;;5002966;28;89669;-31
2022/08/07 08:13:55;;;;;;;6.47;5.47;;;21.70;99.90;;;;;;5004883;28;88660;-32
2022/08/07 08:16:31;;;;;;;5.75;4.88;;;21.70;99.90;;;;;;5002653;28;89196;-33
2022/08/07 08:18:58;;;;;;;7.32;6.00;;;21.70;99.90;;;;;;5002542;28;90387;-32
2022/08/07 08:27:08;;;;;;;6.18;4.85;;;22.10;96.70;;;;;;5003298;28;90183;-31
2022/08/07 08:29:49;;;;;;;5.68;5.18;;;22.20;97.70;;;;;;5001408;28;89293;-32
2022/08/07 08:32:17;;;;;;;6.15;5.10;;;22.20;96.30;;;;;;5002607;28;89526;-31
2022/08/07 08:34:47;;;;;;;5.72;5.15;;;22.10;97.70;;;;;;5002458;28;89302;-30
2022/08/07 08:37:14;;;;;;;4.88;4.47;;;22.10;96.20;;;;;;5002537;28;91883;-30
2022/08/07 08:39:43;;;;;;;4.13;3.83;;;22.10;99.40;;;;;;5001758;28;90925;-31
2022/08/07 08:42:15;;;;;;;6.15;5.35;;;22.20;93.80;;;;;;5001160;28;90481;-34
2022/08/07 08:44:50;;;;;;;6.78;5.10;;;22.10;94.80;;;;;;5001621;28;88052;-32
2022/08/07 08:47:54;;;;;;;14.05;4.60;;;22.00;96.50;;;;;;5005046;28;89938;-33
2022/08/07 08:50:33;;;;;;;5.00;4.53;;;21.90;95.70;;;;;;5007626;28;90383;-32
2022/08/07 08:53:27;;;;;;;4.90;4.40;;;22.00;97.20;;;;;;5005793;28;89444;-33
2022/08/07 08:56:01;;;;;;;10.10;5.82;;;22.00;96.70;;;;;;5007771;28;89349;-31
2022/08/07 08:58:46;;;;;;;6.85;5.20;;;22.10;99.90;;;;;;5007818;28;90022;-32
2022/08/07 09:01:18;;;;;;;5.78;5.18;;;22.30;96.50;;;;;;5008490;28;89317;-31
2022/08/07 09:04:05;;;;;;;8.40;5.85;;;22.30;95.50;;;;;;5008509;28;89316;-31
2022/08/07 09:07:10;;;;;;;6.50;5.72;;;22.30;95.00;;;;;;5006682;28;88162;-32
2022/08/07 09:09:57;;;;;;;9.82;5.57;;;22.40;97.60;;;;;;5006860;28;90895;-33
2022/08/07 09:12:35;;;;;;;6.07;4.35;;;22.70;97.70;;;;;;5013023;28;89345;-34
2022/08/07 09:15:16;;;;;;;5.53;5.00;;;23.00;93.20;;;;;;5007241;28;89895;-31
2022/08/07 09:17:58;;;;;;;5.55;4.82;;;23.20;83.60;;;;;;4994482;28;88688;-31
2022/08/07 09:20:49;;;;;;;9.18;5.07;;;23.10;85.30;;;;;;4991658;28;90156;-33
2022/08/07 09:23:59;;;;;;;16.85;5.53;;;23.30;81.50;;;;;;5006067;28;89823;-33
2022/08/07 09:26:35;;;;;;;4.68;4.20;;;23.50;76.00;;;;;;4992001;28;89416;-31
2022/08/07 09:29:21;;;;;;;8.13;3.95;;;23.40;81.90;;;;;;4993046;28;88783;-32
2022/08/07 09:31:55;;;;;;;4.63;4.23;;;23.40;75.10;;;;;;5007080;28;90309;-30
2022/08/07 09:34:30;;;;;;;4.43;4.03;;;23.50;74.20;;;;;;5004691;28;91150;-34
2022/08/07 09:37:36;;;;;;;3.88;3.47;;;23.40;75.50;;;;;;5005002;28;90564;-31
2022/08/07 09:40:12;;;;;;;5.77;3.93;;;23.50;72.60;;;;;;5003526;28;88033;-32
2022/08/07 09:42:49;;;;;;;4.35;3.50;;;23.50;68.80;;;;;;5003047;28;89349;-31
2022/08/07 09:45:42;;;;;;;3.78;3.40;;;23.50;69.90;;;;;;5001956;28;89830;-33
2022/08/07 09:48:30;;;;;;;3.92;3.63;;;23.70;69.40;;;;;;5005159;28;89391;-32
2022/08/07 09:51:15;;;;;;;5.50;3.78;;;23.80;68.50;;;;;;5005106;28;88452;-32
2022/08/07 09:53:45;;;;;;;4.40;3.63;;;23.70;67.70;;;;;;5007538;28;90351;-31
2022/08/07 09:56:46;;;;;;;4.40;4.00;;;23.80;67.20;;;;;;5006299;28;90451;-33
2022/08/07 09:59:37;;;;;;;4.25;3.83;;;23.90;65.80;;;;;;5008790;28;89465;-32
2022/08/07 10:02:36;;;;;;;4.82;3.25;;;24.00;66.20;;;;;;5010026;28;89255;-31
2022/08/07 10:05:30;;;;;;;5.35;3.53;;;24.00;65.90;;;;;;4996425;28;88746;-31
2022/08/07 10:08:25;;;;;;;4.45;3.55;;;24.30;64.90;;;;;;5009765;28;88539;-32
2022/08/07 10:11:22;;;;;;;5.13;3.40;;;24.40;63.00;;;;;;4995136;28;89713;-34
2022/08/07 10:14:03;;;;;;;4.65;3.15;;;24.40;64.10;;;;;;5001497;28;87978;-33
2022/08/07 10:16:50;;;;;;;4.05;3.03;;;24.60;64.10;;;;;;5003904;28;91154;-31
2022/08/07 10:19:25;;;;;;;4.27;3.87;;;24.80;62.80;;;;;;5003545;28;89937;-32
2022/08/07 10:22:12;;;;;;;5.53;3.38;;;24.80;61.50;;;;;;5000183;28;88612;-32
2022/08/07 10:24:48;;;;;;;3.03;2.72;;;24.70;60.90;;;;;;5003223;28;88530;-31
2022/08/07 10:27:32;;;;;;;3.17;2.85;;;24.60;60.80;;;;;;5001098;28;90541;-34
2022/08/07 10:30:08;;;;;;;7.30;2.83;;;24.50;60.50;;;;;;5002456;28;90702;-34
2022/08/07 10:33:23;;;;;;;3.33;2.78;;;24.60;61.10;;;;;;5003939;28;90350;-31
2022/08/07 10:36:10;;;;;;;5.88;2.35;;;24.80;60.60;;;;;;4944584;28;88899;-32
2022/08/07 10:38:47;;;;;;;4.72;3.20;;;25.00;59.40;;;;;;5004999;28;90189;-31
2022/08/07 10:41:33;;;;;;;2.83;2.50;;;25.10;58.70;;;;;;5007457;28;88942;-33
2022/08/07 10:44:16;;;;;;;2.45;2.20;;;25.10;61.10;;;;;;5007175;28;89526;-32
2022/08/07 10:47:15;;;;;;;3.53;3.22;;;25.10;57.30;;;;;;5005696;28;87978;-32
2022/08/07 10:49:57;;;;;;;4.10;3.55;;;24.90;58.50;;;;;;4931745;28;91514;-33
2022/08/07 10:52:54;;;;;;;3.80;2.90;;;24.70;58.80;;;;;;5000721;28;89651;-33
2022/08/07 10:55:30;;;;;;;3.25;2.70;;;24.70;59.80;;;;;;4962972;28;89916;-32
2022/08/07 10:58:10;;;;;;;3.13;2.83;;;24.60;59.30;;;;;;5006169;28;89031;-32
2022/08/07 11:00:49;;;;;;;4.80;2.92;;;24.30;59.70;;;;;;5003599;28;88894;-33
2022/08/07 11:03:33;;;;;;;3.58;2.78;;;24.30;58.70;;;;;;5004755;28;89111;-32
2022/08/07 11:06:15;;;;;;;2.80;2.60;;;24.20;58.70;;;;;;5004124;28;89074;-33
2022/08/07 11:08:50;;;;;;;3.65;2.60;;;24.20;59.30;;;;;;5005223;28;89827;-31
2022/08/07 11:11:24;;;;;;;3.42;2.97;;;24.20;58.40;;;;;;5001493;28;90072;-33
2022/08/07 11:14:23;;;;;;;3.20;2.63;;;24.20;58.10;;;;;;5001155;28;89752;-33
2022/08/07 11:16:57;;;;;;;4.43;2.67;;;24.30;58.30;;;;;;4995729;28;89337;-32
2022/08/07 11:19:35;;;;;;;3.42;3.10;;;24.30;57.90;;;;;;5011019;28;88444;-34
2022/08/07 11:22:14;;;;;;;3.20;2.90;;;24.30;58.10;;;;;;5010774;28;90054;-32
2022/08/07 11:25:11;;;;;;;4.22;2.75;;;24.10;59.10;;;;;;5010464;28;90580;-34
2022/08/07 11:27:56;;;;;;;4.85;2.85;;;23.90;60.00;;;;;;4967064;28;90520;-32
2022/08/07 11:30:31;;;;;;;3.03;2.72;;;23.90;59.60;;;;;;5011591;28;88411;-31
2022/08/07 11:33:05;;;;;;;3.15;2.95;;;23.90;59.70;;;;;;5010276;28;90343;-31
2022/08/07 11:35:41;;;;;;;2.70;2.50;;;24.00;61.10;;;;;;5006470;28;89703;-32
2022/08/07 11:38:16;;;;;;;5.30;3.40;;;24.20;60.30;;;;;;4999121;28;89686;-32
2022/08/07 11:41:07;;;;;;;2.53;2.33;;;24.20;60.00;;;;;;5003331;28;88595;-33
2022/08/07 11:44:01;;;;;;;3.42;3.13;;;24.20;61.00;;;;;;5001519;28;90555;-35
2022/08/07 11:47:12;;;;;;;3.17;2.80;;;24.20;60.20;;;;;;5000566;28;90323;-34
2022/08/07 11:49:52;;;;;;;3.20;2.90;;;24.10;59.90;;;;;;4983853;28;89580;-31
2022/08/07 11:52:53;;;;;;;3.42;3.13;;;24.10;59.20;;;;;;5007142;28;90713;-31
2022/08/07 11:55:47;;;;;;;3.80;3.50;;;24.10;58.50;;;;;;5005572;28;90237;-32
2022/08/07 11:58:36;;;;;;;2.70;2.38;;;24.10;58.80;;;;;;4998091;28;89973;-31
2022/08/07 12:01:22;;;;;;;2.75;2.55;;;24.20;59.50;;;;;;5004351;28;89583;-31
2022/08/07 12:04:19;;;;;;;7.88;3.40;;;24.30;59.90;;;;;;5003954;28;89189;-33
2022/08/07 12:07:24;;;;;;;4.53;3.13;;;24.30;59.30;;;;;;4992150;28;90401;-34
2022/08/07 12:10:02;;;;;;;2.22;2.03;;;24.20;60.10;;;;;;4935074;28;89829;-34
2022/08/07 12:12:38;;;;;;;3.85;2.72;;;24.20;57.80;;;;;;4945676;28;89347;-33
2022/08/07 12:15:14;;;;;;;2.92;2.63;;;24.10;58.00;;;;;;4972123;28;89256;-32
2022/08/07 12:18:07;;;;;;;3.22;2.35;;;24.10;58.90;;;;;;5008160;28;90928;-34
2022/08/07 12:20:50;;;;;;;2.85;2.35;;;24.10;59.20;;;;;;5035423;22;90817;-31
2022/08/07 12:23:30;;;;;;;2.17;1.98;;;24.20;58.20;;;;;;5008119;28;90317;-34
2022/08/07 12:26:04;;;;;;;2.22;2.03;;;24.30;57.60;;;;;;5008914;28;87599;-31
2022/08/07 12:28:46;;;;;;;3.13;2.80;;;24.30;56.70;;;;;;5009783;28;90762;-31
2022/08/07 12:31:26;;;;;;;2.88;2.58;;;24.30;56.60;;;;;;5008322;28;89577;-31
2022/08/07 12:33:53;;;;;;;2.60;1.85;;;24.50;57.00;;;;;;5011978;28;88941;-32
2022/08/07 12:36:21;;;;;;;2.65;2.13;;;24.50;54.50;;;;;;5009854;28;88910;-35
2022/08/07 12:38:47;;;;;;;2.13;1.92;;;24.40;55.90;;;;;;5010997;28;90239;-31
2022/08/07 12:41:14;;;;;;;2.35;2.22;;;24.30;55.70;;;;;;5010921;28;89674;-32
2022/08/07 12:43:42;;;;;;;2.30;2.10;;;24.30;56.20;;;;;;5010416;28;90242;-32
2022/08/07 12:46:14;;;;;;;2.53;2.10;;;24.30;55.60;;;;;;5006963;28;88953;-33
2022/08/07 12:49:11;;;;;;;3.10;2.05;;;24.10;56.30;;;;;;5001175;28;90491;-33
2022/08/07 12:51:49;;;;;;;4.82;1.90;;;24.10;57.40;;;;;;4999851;28;89923;-32
2022/08/07 12:54:53;;;;;;;1.80;1.70;;;24.20;56.80;;;;;;4998550;28;90461;-36
2022/08/07 12:57:23;;;;;;;2.00;1.80;;;24.40;55.70;;;;;;4965837;28;87964;-32
2022/08/07 12:59:53;;;;;;;2.42;2.22;;;24.50;55.50;;;;;;4997508;28;90373;-31
2022/08/07 13:02:37;;;;;;;3.15;2.42;;;24.60;54.80;;;;;;5006679;28;89438;-33
2022/08/07 13:05:27;;;;;;;3.20;1.92;;;24.40;55.00;;;;;;5004776;28;88060;-32
2022/08/07 13:08:01;;;;;;;2.30;1.98;;;24.30;55.70;;;;;;4998376;28;89829;-33
2022/08/07 13:10:48;;;;;;;2.15;1.98;;;24.30;55.70;;;;;;4999725;28;89922;-32
2022/08/07 13:13:36;;;;;;;1.42;1.33;;;24.20;56.50;;;;;;4995313;28;91042;-32
2022/08/07 13:16:36;;;;;;;1.75;1.65;;;24.10;55.30;;;;;;5009573;28;90437;-32
2022/08/07 13:19:08;;;;;;;2.20;1.70;;;23.80;56.20;;;;;;4989086;28;87837;-35
2022/08/07 13:22:03;;;;;;;2.47;1.55;;;23.50;55.60;;;;;;4990388;28;90537;-31